sensor_id;sensor_type;location;lat;lon;timestamp;P1;durP1;ratioP1;P2;durP2;ratioP2
17850;SDS011;9051;51.548;14.348;2023-02-21T18:30:21;6.20;;;4.97;;
17850;SDS011;9051;51.548;14.348;2023-02-21T18:32:53;7.43;;;6.33;;
17850;SDS011;9051;51.548;14.348;2023-02-21T18:35:27;6.60;;;4.93;;
17850;SDS011;9051;51.548;14.348;2023-02-21T18:38:01;9.53;;;6.67;;
17850;SDS011;9051;51.548;14.348;2023-02-21T18:40:33;6.80;;;4.33;;
17850;SDS011;9051;51.548;14.348;2023-02-21T18:43:17;5.33;;;4.10;;
17850;SDS011;9051;51.548;14.348;2023-02-21T18:45:53;3.50;;;1.90;;
17850;SDS011;9051;51.548;14.348;2023-02-21T18:48:25;2.13;;;1.47;;
17850;SDS011;9051;51.548;14.348;2023-02-21T18:50:57;2.43;;;1.43;;
17850;SDS011;9051;51.548;14.348;2023-02-21T18:53:34;1.23;;;1.10;;
17850;SDS011;9051;51.548;14.348;2023-02-21T18:56:09;1.47;;;0.80;;
17850;SDS011;9051;51.548;14.348;2023-02-21T18:58:43;4.07;;;2.03;;
17850;SDS011;9051;51.548;14.348;2023-02-21T19:01:20;2.07;;;1.10;;
17850;SDS011;9051;51.548;14.348;2023-02-21T19:03:57;2.40;;;1.00;;
17850;SDS011;9051;51.548;14.348;2023-02-21T19:06:33;1.33;;;0.90;;
17850;SDS011;9051;51.548;14.348;2023-02-21T19:09:05;1.87;;;0.93;;
17850;SDS011;9051;51.548;14.348;2023-02-21T19:11:37;1.23;;;0.90;;
17850;SDS011;9051;51.548;14.348;2023-02-21T19:14:12;1.53;;;0.83;;
17850;SDS011;9051;51.548;14.348;2023-02-21T19:16:46;1.93;;;1.37;;
17850;SDS011;9051;51.548;14.348;2023-02-21T19:19:18;0.80;;;0.80;;
17850;SDS011;9051;51.548;14.348;2023-02-21T19:21:53;1.03;;;0.90;;
17850;SDS011;9051;51.548;14.348;2023-02-21T19:24:25;1.37;;;0.93;;
17850;SDS011;9051;51.548;14.348;2023-02-21T19:26:57;1.80;;;1.30;;
17850;SDS011;9051;51.548;14.348;2023-02-21T19:29:29;1.53;;;1.10;;
17850;SDS011;9051;51.548;14.348;2023-02-21T19:32:02;2.33;;;1.20;;
17850;SDS011;9051;51.548;14.348;2023-02-21T19:34:35;1.00;;;0.90;;
17850;SDS011;9051;51.548;14.348;2023-02-21T19:37:07;1.50;;;1.10;;
17850;SDS011;9051;51.548;14.348;2023-02-21T19:39:39;2.60;;;1.17;;
17850;SDS011;9051;51.548;14.348;2023-02-21T19:42:11;2.80;;;1.20;;
17850;SDS011;9051;51.548;14.348;2023-02-21T19:44:43;1.27;;;1.00;;
17850;SDS011;9051;51.548;14.348;2023-02-21T19:47:16;1.57;;;1.27;;
17850;SDS011;9051;51.548;14.348;2023-02-21T19:49:51;1.70;;;1.10;;
17850;SDS011;9051;51.548;14.348;2023-02-21T19:52:23;2.30;;;1.33;;
17850;SDS011;9051;51.548;14.348;2023-02-21T19:54:55;2.07;;;1.43;;
17850;SDS011;9051;51.548;14.348;2023-02-21T19:57:27;1.67;;;1.40;;
17850;SDS011;9051;51.548;14.348;2023-02-21T19:59:59;1.40;;;1.30;;
17850;SDS011;9051;51.548;14.348;2023-02-21T20:02:33;1.60;;;1.40;;
17850;SDS011;9051;51.548;14.348;2023-02-21T20:05:05;1.80;;;1.33;;
17850;SDS011;9051;51.548;14.348;2023-02-21T20:07:37;1.93;;;1.57;;
17850;SDS011;9051;51.548;14.348;2023-02-21T20:10:10;2.50;;;1.93;;
17850;SDS011;9051;51.548;14.348;2023-02-21T20:12:43;2.90;;;2.23;;
17850;SDS011;9051;51.548;14.348;2023-02-21T20:15:15;4.30;;;2.87;;
17850;SDS011;9051;51.548;14.348;2023-02-21T20:17:48;4.83;;;3.03;;
17850;SDS011;9051;51.548;14.348;2023-02-21T20:20:22;10.77;;;6.03;;
17850;SDS011;9051;51.548;14.348;2023-02-21T20:22:54;7.17;;;4.70;;
17850;SDS011;9051;51.548;14.348;2023-02-21T20:25:27;10.50;;;6.00;;
17850;SDS011;9051;51.548;14.348;2023-02-21T20:27:59;9.87;;;5.47;;
17850;SDS011;9051;51.548;14.348;2023-02-21T20:30:32;8.97;;;5.90;;
17850;SDS011;9051;51.548;14.348;2023-02-21T20:33:06;5.57;;;3.80;;
17850;SDS011;9051;51.548;14.348;2023-02-21T20:35:38;4.90;;;2.27;;
17850;SDS011;9051;51.548;14.348;2023-02-21T20:38:10;3.13;;;1.47;;
17850;SDS011;9051;51.548;14.348;2023-02-21T20:40:42;4.13;;;1.80;;
17850;SDS011;9051;51.548;14.348;2023-02-21T20:43:15;3.87;;;2.80;;
17850;SDS011;9051;51.548;14.348;2023-02-21T20:45:47;4.80;;;2.30;;
17850;SDS011;9051;51.548;14.348;2023-02-21T20:48:20;3.30;;;2.23;;
17850;SDS011;9051;51.548;14.348;2023-02-21T20:50:54;3.57;;;2.17;;
17850;SDS011;9051;51.548;14.348;2023-02-21T20:53:26;6.00;;;2.50;;
17850;SDS011;9051;51.548;14.348;2023-02-21T20:55:58;6.40;;;2.30;;
17850;SDS011;9051;51.548;14.348;2023-02-21T20:58:30;7.33;;;2.80;;
17850;SDS011;9051;51.548;14.348;2023-02-21T21:01:03;4.87;;;2.33;;
17850;SDS011;9051;51.548;14.348;2023-02-21T21:03:37;7.20;;;2.20;;
17850;SDS011;9051;51.548;14.348;2023-02-21T21:06:09;3.67;;;2.40;;
17850;SDS011;9051;51.548;14.348;2023-02-21T21:08:41;5.63;;;2.33;;
17850;SDS011;9051;51.548;14.348;2023-02-21T21:11:15;4.83;;;2.43;;
17850;SDS011;9051;51.548;14.348;2023-02-21T21:13:47;7.50;;;2.70;;
17850;SDS011;9051;51.548;14.348;2023-02-21T21:16:19;7.33;;;2.60;;
17850;SDS011;9051;51.548;14.348;2023-02-21T21:18:52;9.67;;;3.10;;
17850;SDS011;9051;51.548;14.348;2023-02-21T21:21:27;8.03;;;3.20;;
17850;SDS011;9051;51.548;14.348;2023-02-21T21:23:59;12.50;;;3.60;;
17850;SDS011;9051;51.548;14.348;2023-02-21T21:26:41;7.73;;;3.27;;
17850;SDS011;9051;51.548;14.348;2023-02-21T21:29:14;13.43;;;3.40;;
17850;SDS011;9051;51.548;14.348;2023-02-21T21:31:46;8.57;;;2.70;;
17850;SDS011;9051;51.548;14.348;2023-02-21T21:34:24;7.03;;;2.70;;
17850;SDS011;9051;51.548;14.348;2023-02-21T21:36:57;7.73;;;2.97;;
17850;SDS011;9051;51.548;14.348;2023-02-21T21:39:31;7.47;;;2.80;;
17850;SDS011;9051;51.548;14.348;2023-02-21T21:42:06;10.20;;;2.83;;
17850;SDS011;9051;51.548;14.348;2023-02-21T21:44:39;9.50;;;3.03;;
17850;SDS011;9051;51.548;14.348;2023-02-21T21:47:15;11.13;;;3.30;;
17850;SDS011;9051;51.548;14.348;2023-02-21T21:49:52;6.53;;;2.93;;
17850;SDS011;9051;51.548;14.348;2023-02-21T21:52:24;8.60;;;2.83;;
17850;SDS011;9051;51.548;14.348;2023-02-21T21:55:00;7.40;;;2.50;;
17850;SDS011;9051;51.548;14.348;2023-02-21T21:57:33;7.67;;;2.20;;
17850;SDS011;9051;51.548;14.348;2023-02-21T22:00:05;7.57;;;2.47;;
17850;SDS011;9051;51.548;14.348;2023-02-21T22:02:51;8.83;;;2.67;;
17850;SDS011;9051;51.548;14.348;2023-02-21T22:05:28;7.10;;;2.80;;
17850;SDS011;9051;51.548;14.348;2023-02-21T22:08:01;11.03;;;2.50;;
17850;SDS011;9051;51.548;14.348;2023-02-21T22:10:33;8.17;;;2.70;;
17850;SDS011;9051;51.548;14.348;2023-02-21T22:13:04;9.13;;;2.60;;
17850;SDS011;9051;51.548;14.348;2023-02-21T22:15:42;6.93;;;2.50;;
17850;SDS011;9051;51.548;14.348;2023-02-21T22:18:15;14.63;;;3.30;;
17850;SDS011;9051;51.548;14.348;2023-02-21T22:20:49;12.70;;;3.20;;
17850;SDS011;9051;51.548;14.348;2023-02-21T22:23:21;11.70;;;3.50;;
17850;SDS011;9051;51.548;14.348;2023-02-21T22:25:54;12.60;;;2.63;;
17850;SDS011;9051;51.548;14.348;2023-02-21T22:28:27;12.57;;;2.87;;
17850;SDS011;9051;51.548;14.348;2023-02-21T22:30:59;14.30;;;3.77;;
17850;SDS011;9051;51.548;14.348;2023-02-21T22:33:31;11.70;;;2.97;;
17850;SDS011;9051;51.548;14.348;2023-02-21T22:36:05;9.07;;;2.60;;
17850;SDS011;9051;51.548;14.348;2023-02-21T22:38:40;12.23;;;3.00;;
17850;SDS011;9051;51.548;14.348;2023-02-21T22:41:16;11.20;;;3.53;;
17850;SDS011;9051;51.548;14.348;2023-02-21T22:43:49;10.57;;;2.70;;
17850;SDS011;9051;51.548;14.348;2023-02-21T22:46:23;9.20;;;2.70;;
17850;SDS011;9051;51.548;14.348;2023-02-21T22:48:56;12.83;;;3.17;;
17850;SDS011;9051;51.548;14.348;2023-02-21T22:51:29;9.33;;;2.70;;
17850;SDS011;9051;51.548;14.348;2023-02-21T22:54:03;11.23;;;3.13;;
17850;SDS011;9051;51.548;14.348;2023-02-21T22:56:35;10.83;;;3.50;;
17850;SDS011;9051;51.548;14.348;2023-02-21T22:59:20;13.17;;;3.57;;
17850;SDS011;9051;51.548;14.348;2023-02-21T23:01:54;12.70;;;4.60;;
17850;SDS011;9051;51.548;14.348;2023-02-21T23:04:28;19.70;;;4.37;;
17850;SDS011;9051;51.548;14.348;2023-02-21T23:07:04;11.83;;;3.57;;
17850;SDS011;9051;51.548;14.348;2023-02-21T23:09:36;16.43;;;4.57;;
17850;SDS011;9051;51.548;14.348;2023-02-21T23:12:08;15.67;;;5.33;;
17850;SDS011;9051;51.548;14.348;2023-02-21T23:14:44;13.37;;;4.80;;
17850;SDS011;9051;51.548;14.348;2023-02-21T23:17:17;12.43;;;4.23;;
17850;SDS011;9051;51.548;14.348;2023-02-21T23:19:49;13.77;;;4.67;;
17850;SDS011;9051;51.548;14.348;2023-02-21T23:22:22;13.67;;;4.43;;
17850;SDS011;9051;51.548;14.348;2023-02-21T23:24:54;12.10;;;4.63;;
17850;SDS011;9051;51.548;14.348;2023-02-21T23:27:26;12.77;;;3.40;;
17850;SDS011;9051;51.548;14.348;2023-02-21T23:29:58;13.97;;;3.90;;
17850;SDS011;9051;51.548;14.348;2023-02-21T23:32:30;11.00;;;3.47;;
17850;SDS011;9051;51.548;14.348;2023-02-21T23:35:02;10.10;;;3.30;;
17850;SDS011;9051;51.548;14.348;2023-02-21T23:37:38;10.03;;;3.43;;
17850;SDS011;9051;51.548;14.348;2023-02-21T23:40:13;13.80;;;3.53;;
17850;SDS011;9051;51.548;14.348;2023-02-21T23:42:48;9.53;;;3.07;;
17850;SDS011;9051;51.548;14.348;2023-02-21T23:45:22;12.73;;;3.60;;
17850;SDS011;9051;51.548;14.348;2023-02-21T23:47:55;7.57;;;2.93;;
17850;SDS011;9051;51.548;14.348;2023-02-21T23:50:27;10.63;;;3.00;;
17850;SDS011;9051;51.548;14.348;2023-02-21T23:53:02;15.77;;;3.83;;
17850;SDS011;9051;51.548;14.348;2023-02-21T23:55:35;9.37;;;3.10;;
17850;SDS011;9051;51.548;14.348;2023-02-21T23:58:10;11.77;;;3.07;;
